sensor_id;sensor_type;location;lat;lon;timestamp;temperature;humidity
7762;DHT22;3925;48.636;9.516;2022-12-18T00:01:51;-8.00;99.90
7762;DHT22;3925;48.636;9.516;2022-12-18T00:04:21;-8.00;99.90
7762;DHT22;3925;48.636;9.516;2022-12-18T00:06:49;-8.00;99.90
7762;DHT22;3925;48.636;9.516;2022-12-18T00:09:16;-7.90;99.90
7762;DHT22;3925;48.636;9.516;2022-12-18T00:11:43;-7.80;99.90
7762;DHT22;3925;48.636;9.516;2022-12-18T00:14:12;-7.40;99.90
7762;DHT22;3925;48.636;9.516;2022-12-18T00:16:42;-7.20;99.90
7762;DHT22;3925;48.636;9.516;2022-12-18T00:19:10;-7.20;99.90
7762;DHT22;3925;48.636;9.516;2022-12-18T00:21:37;-7.00;99.90
7762;DHT22;3925;48.636;9.516;2022-12-18T00:24:04;-7.10;99.90
7762;DHT22;3925;48.636;9.516;2022-12-18T00:26:33;-7.30;99.90
7762;DHT22;3925;48.636;9.516;2022-12-18T00:29:02;-7.40;99.90
7762;DHT22;3925;48.636;9.516;2022-12-18T00:31:31;-7.60;99.90
7762;DHT22;3925;48.636;9.516;2022-12-18T00:33:58;-7.80;99.90
7762;DHT22;3925;48.636;9.516;2022-12-18T00:36:27;-7.80;99.90
7762;DHT22;3925;48.636;9.516;2022-12-18T00:38:54;-7.60;99.90
7762;DHT22;3925;48.636;9.516;2022-12-18T00:41:22;-7.80;99.90
7762;DHT22;3925;48.636;9.516;2022-12-18T00:44:09;-7.80;99.90
7762;DHT22;3925;48.636;9.516;2022-12-18T00:46:37;-7.50;99.90
7762;DHT22;3925;48.636;9.516;2022-12-18T00:49:04;-7.50;99.90
7762;DHT22;3925;48.636;9.516;2022-12-18T00:51:31;-7.60;99.90
7762;DHT22;3925;48.636;9.516;2022-12-18T00:53:58;-7.70;99.90
7762;DHT22;3925;48.636;9.516;2022-12-18T00:56:25;-7.70;99.90
7762;DHT22;3925;48.636;9.516;2022-12-18T00:58:53;-7.70;99.90
7762;DHT22;3925;48.636;9.516;2022-12-18T01:01:20;-7.70;99.90
7762;DHT22;3925;48.636;9.516;2022-12-18T01:03:48;-7.50;99.90
7762;DHT22;3925;48.636;9.516;2022-12-18T01:06:16;-7.50;99.90
7762;DHT22;3925;48.636;9.516;2022-12-18T01:08:42;-7.70;99.90
7762;DHT22;3925;48.636;9.516;2022-12-18T01:11:11;-7.70;99.90
7762;DHT22;3925;48.636;9.516;2022-12-18T01:13:38;-7.70;99.90
7762;DHT22;3925;48.636;9.516;2022-12-18T01:16:05;-7.60;99.90
7762;DHT22;3925;48.636;9.516;2022-12-18T01:18:32;-7.40;99.90
7762;DHT22;3925;48.636;9.516;2022-12-18T01:21:00;-7.50;99.90
7762;DHT22;3925;48.636;9.516;2022-12-18T01:23:31;-7.60;99.90
7762;DHT22;3925;48.636;9.516;2022-12-18T01:26:03;-7.60;99.90
7762;DHT22;3925;48.636;9.516;2022-12-18T01:28:30;-7.60;99.90
7762;DHT22;3925;48.636;9.516;2022-12-18T01:30:56;-7.70;99.90
7762;DHT22;3925;48.636;9.516;2022-12-18T01:33:23;-7.70;99.90
7762;DHT22;3925;48.636;9.516;2022-12-18T01:35:50;-7.80;99.90
7762;DHT22;3925;48.636;9.516;2022-12-18T01:38:18;-7.80;99.90
7762;DHT22;3925;48.636;9.516;2022-12-18T01:40:45;-7.70;99.90
7762;DHT22;3925;48.636;9.516;2022-12-18T01:43:12;-7.50;99.90
7762;DHT22;3925;48.636;9.516;2022-12-18T01:45:39;-7.40;99.90
7762;DHT22;3925;48.636;9.516;2022-12-18T01:48:06;-7.60;99.90
7762;DHT22;3925;48.636;9.516;2022-12-18T01:50:36;-7.50;99.90
7762;DHT22;3925;48.636;9.516;2022-12-18T01:53:07;-7.30;99.90
7762;DHT22;3925;48.636;9.516;2022-12-18T01:55:42;-6.40;99.90
7762;DHT22;3925;48.636;9.516;2022-12-18T01:58:09;-6.40;99.90
7762;DHT22;3925;48.636;9.516;2022-12-18T02:00:36;-6.50;99.90
7762;DHT22;3925;48.636;9.516;2022-12-18T02:03:03;-6.70;99.90
7762;DHT22;3925;48.636;9.516;2022-12-18T02:05:41;-6.60;99.90
7762;DHT22;3925;48.636;9.516;2022-12-18T02:08:12;-6.30;99.90
7762;DHT22;3925;48.636;9.516;2022-12-18T02:10:47;-6.40;99.90
7762;DHT22;3925;48.636;9.516;2022-12-18T02:13:20;-6.60;99.90
7762;DHT22;3925;48.636;9.516;2022-12-18T02:15:55;-6.80;99.90
7762;DHT22;3925;48.636;9.516;2022-12-18T02:18:30;-6.90;99.90
7762;DHT22;3925;48.636;9.516;2022-12-18T02:21:04;-7.20;99.90
7762;DHT22;3925;48.636;9.516;2022-12-18T02:23:44;-7.50;99.90
7762;DHT22;3925;48.636;9.516;2022-12-18T02:26:20;-7.70;99.90
7762;DHT22;3925;48.636;9.516;2022-12-18T02:28:53;-7.90;99.90
7762;DHT22;3925;48.636;9.516;2022-12-18T02:31:24;-8.00;99.90
7762;DHT22;3925;48.636;9.516;2022-12-18T02:33:54;-7.50;99.90
7762;DHT22;3925;48.636;9.516;2022-12-18T02:36:24;-7.60;99.90
7762;DHT22;3925;48.636;9.516;2022-12-18T02:38:52;-7.70;99.90
7762;DHT22;3925;48.636;9.516;2022-12-18T02:41:21;-7.40;99.90
7762;DHT22;3925;48.636;9.516;2022-12-18T02:43:52;-7.30;99.90
7762;DHT22;3925;48.636;9.516;2022-12-18T02:46:34;-7.60;99.90
7762;DHT22;3925;48.636;9.516;2022-12-18T02:49:10;-7.50;99.90
7762;DHT22;3925;48.636;9.516;2022-12-18T02:51:45;-7.60;99.90
7762;DHT22;3925;48.636;9.516;2022-12-18T02:54:21;-7.70;99.90
7762;DHT22;3925;48.636;9.516;2022-12-18T02:56:54;-7.80;99.90
7762;DHT22;3925;48.636;9.516;2022-12-18T02:59:29;-7.70;99.90
7762;DHT22;3925;48.636;9.516;2022-12-18T03:02:04;-7.40;99.90
7762;DHT22;3925;48.636;9.516;2022-12-18T03:04:35;-7.50;99.90
7762;DHT22;3925;48.636;9.516;2022-12-18T03:07:09;-7.20;99.90
7762;DHT22;3925;48.636;9.516;2022-12-18T03:09:40;-7.10;99.90
7762;DHT22;3925;48.636;9.516;2022-12-18T03:12:14;-7.30;99.90
7762;DHT22;3925;48.636;9.516;2022-12-18T03:14:56;-7.40;99.90
7762;DHT22;3925;48.636;9.516;2022-12-18T03:17:26;-7.30;99.90
7762;DHT22;3925;48.636;9.516;2022-12-18T03:19:56;-7.60;99.90
7762;DHT22;3925;48.636;9.516;2022-12-18T03:22:27;-7.60;99.90
7762;DHT22;3925;48.636;9.516;2022-12-18T03:24:56;-7.60;99.90
7762;DHT22;3925;48.636;9.516;2022-12-18T03:27:26;-7.60;99.90
7762;DHT22;3925;48.636;9.516;2022-12-18T03:30:01;-7.60;99.90
7762;DHT22;3925;48.636;9.516;2022-12-18T03:32:35;-8.00;99.90
7762;DHT22;3925;48.636;9.516;2022-12-18T03:35:07;-7.70;99.90
7762;DHT22;3925;48.636;9.516;2022-12-18T03:37:35;-7.00;99.90
7762;DHT22;3925;48.636;9.516;2022-12-18T03:40:02;-7.30;99.90
7762;DHT22;3925;48.636;9.516;2022-12-18T03:42:37;-7.50;99.90
7762;DHT22;3925;48.636;9.516;2022-12-18T03:45:09;-7.60;99.90
7762;DHT22;3925;48.636;9.516;2022-12-18T03:47:42;-8.20;99.90
7762;DHT22;3925;48.636;9.516;2022-12-18T03:50:15;-8.00;99.90
7762;DHT22;3925;48.636;9.516;2022-12-18T03:52:49;-7.70;99.90
7762;DHT22;3925;48.636;9.516;2022-12-18T03:55:18;-7.80;99.90
7762;DHT22;3925;48.636;9.516;2022-12-18T03:57:47;-8.00;99.90
7762;DHT22;3925;48.636;9.516;2022-12-18T04:00:17;-8.20;99.90
7762;DHT22;3925;48.636;9.516;2022-12-18T04:02:47;-8.30;99.90
7762;DHT22;3925;48.636;9.516;2022-12-18T04:05:15;-8.20;99.90
7762;DHT22;3925;48.636;9.516;2022-12-18T04:07:44;-8.40;99.90
7762;DHT22;3925;48.636;9.516;2022-12-18T04:10:12;-8.20;99.90
7762;DHT22;3925;48.636;9.516;2022-12-18T04:12:39;-8.30;99.90
7762;DHT22;3925;48.636;9.516;2022-12-18T04:15:08;-8.40;99.90
7762;DHT22;3925;48.636;9.516;2022-12-18T04:17:36;-8.50;99.90
7762;DHT22;3925;48.636;9.516;2022-12-18T04:20:03;-8.50;99.90
7762;DHT22;3925;48.636;9.516;2022-12-18T04:22:30;-8.50;99.90
7762;DHT22;3925;48.636;9.516;2022-12-18T04:24:57;-8.00;99.90
7762;DHT22;3925;48.636;9.516;2022-12-18T04:27:24;-7.80;99.90
7762;DHT22;3925;48.636;9.516;2022-12-18T04:29:51;-7.70;99.90
7762;DHT22;3925;48.636;9.516;2022-12-18T04:32:19;-7.80;99.90
7762;DHT22;3925;48.636;9.516;2022-12-18T04:34:46;-8.00;99.90
7762;DHT22;3925;48.636;9.516;2022-12-18T04:37:13;-8.10;99.90
7762;DHT22;3925;48.636;9.516;2022-12-18T04:39:40;-7.70;99.90
7762;DHT22;3925;48.636;9.516;2022-12-18T04:42:07;-7.70;99.90
7762;DHT22;3925;48.636;9.516;2022-12-18T04:44:33;-7.40;99.90
7762;DHT22;3925;48.636;9.516;2022-12-18T04:47:00;-7.40;99.90
7762;DHT22;3925;48.636;9.516;2022-12-18T04:49:28;-7.40;99.90
7762;DHT22;3925;48.636;9.516;2022-12-18T04:51:55;-7.30;99.90
7762;DHT22;3925;48.636;9.516;2022-12-18T04:54:22;-7.30;99.90
7762;DHT22;3925;48.636;9.516;2022-12-18T04:56:49;-7.60;99.90
7762;DHT22;3925;48.636;9.516;2022-12-18T04:59:16;-7.50;99.90
7762;DHT22;3925;48.636;9.516;2022-12-18T05:01:42;-7.30;99.90
7762;DHT22;3925;48.636;9.516;2022-12-18T05:04:09;-7.20;99.90
7762;DHT22;3925;48.636;9.516;2022-12-18T05:06:37;-6.80;99.90
7762;DHT22;3925;48.636;9.516;2022-12-18T05:09:04;-7.10;99.90
7762;DHT22;3925;48.636;9.516;2022-12-18T05:11:31;-7.10;99.90
7762;DHT22;3925;48.636;9.516;2022-12-18T05:13:58;-6.90;99.90
7762;DHT22;3925;48.636;9.516;2022-12-18T05:16:25;-6.80;99.90
7762;DHT22;3925;48.636;9.516;2022-12-18T05:18:51;-7.00;99.90
7762;DHT22;3925;48.636;9.516;2022-12-18T05:21:18;-7.20;99.90
7762;DHT22;3925;48.636;9.516;2022-12-18T05:23:46;-7.40;99.90
7762;DHT22;3925;48.636;9.516;2022-12-18T05:26:16;-7.80;99.90
7762;DHT22;3925;48.636;9.516;2022-12-18T05:28:43;-7.90;99.90
7762;DHT22;3925;48.636;9.516;2022-12-18T05:31:10;-7.60;99.90
7762;DHT22;3925;48.636;9.516;2022-12-18T05:33:37;-7.60;99.90
7762;DHT22;3925;48.636;9.516;2022-12-18T05:36:06;-7.50;99.90
7762;DHT22;3925;48.636;9.516;2022-12-18T05:38:35;-7.80;99.90
7762;DHT22;3925;48.636;9.516;2022-12-18T05:41:04;-7.40;99.90
7762;DHT22;3925;48.636;9.516;2022-12-18T05:43:33;-7.30;99.90
7762;DHT22;3925;48.636;9.516;2022-12-18T05:46:04;-7.80;99.90
7762;DHT22;3925;48.636;9.516;2022-12-18T05:48:32;-7.80;99.90
7762;DHT22;3925;48.636;9.516;2022-12-18T05:51:04;-8.10;99.90
7762;DHT22;3925;48.636;9.516;2022-12-18T05:53:32;-8.40;99.90
7762;DHT22;3925;48.636;9.516;2022-12-18T05:56:00;-8.60;99.90
7762;DHT22;3925;48.636;9.516;2022-12-18T05:58:29;-8.70;99.90
7762;DHT22;3925;48.636;9.516;2022-12-18T06:00:56;-8.80;99.90
7762;DHT22;3925;48.636;9.516;2022-12-18T06:03:23;-8.80;99.90
7762;DHT22;3925;48.636;9.516;2022-12-18T06:05:50;-8.60;99.90
7762;DHT22;3925;48.636;9.516;2022-12-18T06:08:17;-8.50;99.90
7762;DHT22;3925;48.636;9.516;2022-12-18T06:10:50;-8.70;99.90
7762;DHT22;3925;48.636;9.516;2022-12-18T06:13:18;-8.70;99.90
7762;DHT22;3925;48.636;9.516;2022-12-18T06:15:46;-8.20;99.90
7762;DHT22;3925;48.636;9.516;2022-12-18T06:18:13;-7.50;99.90
7762;DHT22;3925;48.636;9.516;2022-12-18T06:20:39;-7.60;99.90
7762;DHT22;3925;48.636;9.516;2022-12-18T06:23:07;-7.40;99.90
7762;DHT22;3925;48.636;9.516;2022-12-18T06:25:37;-7.40;99.90
7762;DHT22;3925;48.636;9.516;2022-12-18T06:28:04;-7.70;99.90
7762;DHT22;3925;48.636;9.516;2022-12-18T06:30:31;-7.50;99.90
7762;DHT22;3925;48.636;9.516;2022-12-18T06:33:00;-7.80;99.90
7762;DHT22;3925;48.636;9.516;2022-12-18T06:35:26;-8.10;99.90
7762;DHT22;3925;48.636;9.516;2022-12-18T06:37:53;-7.60;99.90
7762;DHT22;3925;48.636;9.516;2022-12-18T06:40:20;-7.60;99.90
7762;DHT22;3925;48.636;9.516;2022-12-18T06:42:47;-7.80;99.90
7762;DHT22;3925;48.636;9.516;2022-12-18T06:45:14;-8.20;99.90
7762;DHT22;3925;48.636;9.516;2022-12-18T06:47:41;-8.30;99.90
7762;DHT22;3925;48.636;9.516;2022-12-18T06:50:09;-8.30;99.90
7762;DHT22;3925;48.636;9.516;2022-12-18T06:52:36;-8.60;99.90
7762;DHT22;3925;48.636;9.516;2022-12-18T06:55:05;-8.90;99.90
7762;DHT22;3925;48.636;9.516;2022-12-18T06:57:32;-8.90;99.90
7762;DHT22;3925;48.636;9.516;2022-12-18T07:00:00;-8.80;99.90
7762;DHT22;3925;48.636;9.516;2022-12-18T07:02:27;-8.90;99.90
7762;DHT22;3925;48.636;9.516;2022-12-18T07:04:53;-9.00;99.90
7762;DHT22;3925;48.636;9.516;2022-12-18T07:07:22;-9.10;99.90
7762;DHT22;3925;48.636;9.516;2022-12-18T07:09:49;-8.90;99.90
7762;DHT22;3925;48.636;9.516;2022-12-18T07:12:16;-8.50;99.90
7762;DHT22;3925;48.636;9.516;2022-12-18T07:14:43;-8.40;99.90
7762;DHT22;3925;48.636;9.516;2022-12-18T07:17:10;-8.50;99.90
7762;DHT22;3925;48.636;9.516;2022-12-18T07:19:37;-8.70;99.90
7762;DHT22;3925;48.636;9.516;2022-12-18T07:22:03;-8.80;99.90
7762;DHT22;3925;48.636;9.516;2022-12-18T07:24:32;-9.00;99.90
7762;DHT22;3925;48.636;9.516;2022-12-18T07:26:59;-9.00;99.90
7762;DHT22;3925;48.636;9.516;2022-12-18T07:29:26;-9.00;99.90
7762;DHT22;3925;48.636;9.516;2022-12-18T07:31:52;-8.50;99.90
7762;DHT22;3925;48.636;9.516;2022-12-18T07:34:19;-8.60;99.90
7762;DHT22;3925;48.636;9.516;2022-12-18T07:36:46;-8.10;99.90
7762;DHT22;3925;48.636;9.516;2022-12-18T07:39:13;-7.50;99.90
7762;DHT22;3925;48.636;9.516;2022-12-18T07:41:41;-7.50;99.90
7762;DHT22;3925;48.636;9.516;2022-12-18T07:44:12;-7.30;99.90
7762;DHT22;3925;48.636;9.516;2022-12-18T07:46:39;-7.50;99.90
7762;DHT22;3925;48.636;9.516;2022-12-18T07:49:06;-7.50;99.90
7762;DHT22;3925;48.636;9.516;2022-12-18T07:51:36;-7.40;99.90
7762;DHT22;3925;48.636;9.516;2022-12-18T07:54:03;-7.20;99.90
7762;DHT22;3925;48.636;9.516;2022-12-18T07:56:31;-7.10;99.90
7762;DHT22;3925;48.636;9.516;2022-12-18T07:58:59;-7.10;99.90
7762;DHT22;3925;48.636;9.516;2022-12-18T08:01:26;-6.80;99.90
7762;DHT22;3925;48.636;9.516;2022-12-18T08:03:53;-6.80;99.90
7762;DHT22;3925;48.636;9.516;2022-12-18T08:06:19;-6.50;99.90
7762;DHT22;3925;48.636;9.516;2022-12-18T08:08:46;-6.50;99.90
7762;DHT22;3925;48.636;9.516;2022-12-18T08:11:13;-6.30;99.90
7762;DHT22;3925;48.636;9.516;2022-12-18T08:13:40;-6.10;99.90
7762;DHT22;3925;48.636;9.516;2022-12-18T08:16:08;-6.00;99.90
7762;DHT22;3925;48.636;9.516;2022-12-18T08:18:36;-6.40;99.90
7762;DHT22;3925;48.636;9.516;2022-12-18T08:21:09;-6.30;99.90
7762;DHT22;3925;48.636;9.516;2022-12-18T08:23:36;-6.30;99.90
7762;DHT22;3925;48.636;9.516;2022-12-18T08:26:04;-6.30;99.90
7762;DHT22;3925;48.636;9.516;2022-12-18T08:28:31;-6.10;99.90
7762;DHT22;3925;48.636;9.516;2022-12-18T08:30:58;-5.70;99.90
7762;DHT22;3925;48.636;9.516;2022-12-18T08:33:26;-5.60;99.90
7762;DHT22;3925;48.636;9.516;2022-12-18T08:35:53;-5.40;99.90
7762;DHT22;3925;48.636;9.516;2022-12-18T08:38:20;-5.10;99.90
7762;DHT22;3925;48.636;9.516;2022-12-18T08:40:48;-5.20;99.90
7762;DHT22;3925;48.636;9.516;2022-12-18T08:43:15;-5.10;99.90
7762;DHT22;3925;48.636;9.516;2022-12-18T08:45:59;-4.30;99.90
7762;DHT22;3925;48.636;9.516;2022-12-18T08:48:27;-3.20;98.70
7762;DHT22;3925;48.636;9.516;2022-12-18T08:50:55;-2.40;96.90
7762;DHT22;3925;48.636;9.516;2022-12-18T08:53:25;-1.80;95.80
7762;DHT22;3925;48.636;9.516;2022-12-18T08:55:52;-1.00;94.50
7762;DHT22;3925;48.636;9.516;2022-12-18T08:58:19;0.00;92.70
7762;DHT22;3925;48.636;9.516;2022-12-18T09:00:46;1.30;88.40
7762;DHT22;3925;48.636;9.516;2022-12-18T09:03:13;2.50;81.20
7762;DHT22;3925;48.636;9.516;2022-12-18T09:05:42;3.70;75.50
7762;DHT22;3925;48.636;9.516;2022-12-18T09:08:09;4.80;69.00
7762;DHT22;3925;48.636;9.516;2022-12-18T09:10:41;5.60;64.10
7762;DHT22;3925;48.636;9.516;2022-12-18T09:13:09;6.40;59.00
7762;DHT22;3925;48.636;9.516;2022-12-18T09:15:40;6.40;57.40
7762;DHT22;3925;48.636;9.516;2022-12-18T09:18:07;6.80;56.40
7762;DHT22;3925;48.636;9.516;2022-12-18T09:20:34;7.30;54.60
7762;DHT22;3925;48.636;9.516;2022-12-18T09:23:06;8.20;54.10
7762;DHT22;3925;48.636;9.516;2022-12-18T09:25:33;8.10;52.40
7762;DHT22;3925;48.636;9.516;2022-12-18T09:28:02;8.80;50.80
7762;DHT22;3925;48.636;9.516;2022-12-18T09:30:29;9.10;51.20
7762;DHT22;3925;48.636;9.516;2022-12-18T09:32:58;10.10;49.20
7762;DHT22;3925;48.636;9.516;2022-12-18T09:35:25;10.30;47.40
7762;DHT22;3925;48.636;9.516;2022-12-18T09:37:53;10.50;47.00
7762;DHT22;3925;48.636;9.516;2022-12-18T09:40:24;9.30;47.90
7762;DHT22;3925;48.636;9.516;2022-12-18T09:42:55;10.60;46.90
7762;DHT22;3925;48.636;9.516;2022-12-18T09:45:27;11.30;45.20
7762;DHT22;3925;48.636;9.516;2022-12-18T09:47:56;12.00;44.50
7762;DHT22;3925;48.636;9.516;2022-12-18T09:50:32;12.90;44.10
7762;DHT22;3925;48.636;9.516;2022-12-18T09:53:05;13.60;41.80
7762;DHT22;3925;48.636;9.516;2022-12-18T09:55:37;13.80;40.40
7762;DHT22;3925;48.636;9.516;2022-12-18T09:58:14;14.40;39.90
7762;DHT22;3925;48.636;9.516;2022-12-18T10:00:43;13.80;39.90
7762;DHT22;3925;48.636;9.516;2022-12-18T10:03:11;14.10;39.60
7762;DHT22;3925;48.636;9.516;2022-12-18T10:05:44;13.70;40.10
7762;DHT22;3925;48.636;9.516;2022-12-18T10:08:18;13.70;39.50
7762;DHT22;3925;48.636;9.516;2022-12-18T10:10:52;14.10;39.30
7762;DHT22;3925;48.636;9.516;2022-12-18T10:13:23;14.20;38.80
7762;DHT22;3925;48.636;9.516;2022-12-18T10:16:00;14.40;38.50
7762;DHT22;3925;48.636;9.516;2022-12-18T10:18:44;14.80;38.00
7762;DHT22;3925;48.636;9.516;2022-12-18T10:21:18;15.10;37.80
7762;DHT22;3925;48.636;9.516;2022-12-18T10:23:51;15.10;39.00
7762;DHT22;3925;48.636;9.516;2022-12-18T10:26:25;15.40;38.70
7762;DHT22;3925;48.636;9.516;2022-12-18T10:28:53;14.70;37.40
7762;DHT22;3925;48.636;9.516;2022-12-18T10:31:23;14.80;39.30
7762;DHT22;3925;48.636;9.516;2022-12-18T10:33:51;14.50;38.40
7762;DHT22;3925;48.636;9.516;2022-12-18T10:36:22;15.10;37.90
7762;DHT22;3925;48.636;9.516;2022-12-18T10:38:49;15.10;37.80
7762;DHT22;3925;48.636;9.516;2022-12-18T10:41:27;13.20;38.30
7762;DHT22;3925;48.636;9.516;2022-12-18T10:44:12;14.20;39.90
7762;DHT22;3925;48.636;9.516;2022-12-18T10:46:41;14.40;40.00
7762;DHT22;3925;48.636;9.516;2022-12-18T10:49:19;14.70;38.70
7762;DHT22;3925;48.636;9.516;2022-12-18T10:51:48;15.00;38.30
7762;DHT22;3925;48.636;9.516;2022-12-18T10:54:18;15.30;38.50
7762;DHT22;3925;48.636;9.516;2022-12-18T10:56:47;15.50;39.50
7762;DHT22;3925;48.636;9.516;2022-12-18T10:59:15;14.80;39.20
7762;DHT22;3925;48.636;9.516;2022-12-18T11:01:51;14.50;40.10
7762;DHT22;3925;48.636;9.516;2022-12-18T11:04:22;14.10;40.80
7762;DHT22;3925;48.636;9.516;2022-12-18T11:06:59;13.60;40.70
7762;DHT22;3925;48.636;9.516;2022-12-18T11:09:28;13.10;42.40
7762;DHT22;3925;48.636;9.516;2022-12-18T11:11:58;13.10;42.60
7762;DHT22;3925;48.636;9.516;2022-12-18T11:14:29;12.40;42.90
7762;DHT22;3925;48.636;9.516;2022-12-18T11:16:58;12.00;44.80
7762;DHT22;3925;48.636;9.516;2022-12-18T11:19:32;11.60;45.70
7762;DHT22;3925;48.636;9.516;2022-12-18T11:22:01;11.70;46.10
7762;DHT22;3925;48.636;9.516;2022-12-18T11:24:31;10.90;46.00
7762;DHT22;3925;48.636;9.516;2022-12-18T11:27:01;10.60;48.60
7762;DHT22;3925;48.636;9.516;2022-12-18T11:29:36;9.90;50.10
7762;DHT22;3925;48.636;9.516;2022-12-18T11:32:27;10.60;48.90
7762;DHT22;3925;48.636;9.516;2022-12-18T11:35:01;9.90;50.10
7762;DHT22;3925;48.636;9.516;2022-12-18T11:37:29;10.70;49.80
7762;DHT22;3925;48.636;9.516;2022-12-18T11:40:00;10.80;48.00
7762;DHT22;3925;48.636;9.516;2022-12-18T11:42:35;11.00;48.80
7762;DHT22;3925;48.636;9.516;2022-12-18T11:45:18;10.40;50.00
7762;DHT22;3925;48.636;9.516;2022-12-18T11:47:52;10.50;49.80
7762;DHT22;3925;48.636;9.516;2022-12-18T11:50:24;11.70;50.40
7762;DHT22;3925;48.636;9.516;2022-12-18T11:52:52;12.80;49.10
7762;DHT22;3925;48.636;9.516;2022-12-18T11:55:28;12.70;48.00
7762;DHT22;3925;48.636;9.516;2022-12-18T11:58:05;12.60;48.40
7762;DHT22;3925;48.636;9.516;2022-12-18T12:00:38;12.30;48.60
7762;DHT22;3925;48.636;9.516;2022-12-18T12:03:36;11.70;48.90
7762;DHT22;3925;48.636;9.516;2022-12-18T12:06:13;11.30;49.80
7762;DHT22;3925;48.636;9.516;2022-12-18T12:09:01;11.20;50.10
7762;DHT22;3925;48.636;9.516;2022-12-18T12:11:35;10.60;50.80
7762;DHT22;3925;48.636;9.516;2022-12-18T12:14:17;10.90;51.00
7762;DHT22;3925;48.636;9.516;2022-12-18T12:16:50;10.80;52.50
7762;DHT22;3925;48.636;9.516;2022-12-18T12:19:28;10.40;52.60
7762;DHT22;3925;48.636;9.516;2022-12-18T12:22:06;9.60;54.80
7762;DHT22;3925;48.636;9.516;2022-12-18T12:24:46;9.20;55.90
7762;DHT22;3925;48.636;9.516;2022-12-18T12:27:22;9.00;57.30
7762;DHT22;3925;48.636;9.516;2022-12-18T12:30:00;8.90;57.90
7762;DHT22;3925;48.636;9.516;2022-12-18T12:32:46;8.40;59.00
7762;DHT22;3925;48.636;9.516;2022-12-18T12:35:24;8.00;59.80
7762;DHT22;3925;48.636;9.516;2022-12-18T12:38:00;7.50;60.90
7762;DHT22;3925;48.636;9.516;2022-12-18T12:40:39;6.90;63.00
7762;DHT22;3925;48.636;9.516;2022-12-18T12:43:16;6.70;64.50
7762;DHT22;3925;48.636;9.516;2022-12-18T12:45:49;6.60;65.90
7762;DHT22;3925;48.636;9.516;2022-12-18T12:48:24;6.30;67.00
7762;DHT22;3925;48.636;9.516;2022-12-18T12:50:55;5.90;68.90
7762;DHT22;3925;48.636;9.516;2022-12-18T12:53:28;5.40;71.00
7762;DHT22;3925;48.636;9.516;2022-12-18T12:55:57;5.00;72.70
7762;DHT22;3925;48.636;9.516;2022-12-18T12:58:31;4.90;75.30
7762;DHT22;3925;48.636;9.516;2022-12-18T13:01:12;4.60;77.30
7762;DHT22;3925;48.636;9.516;2022-12-18T13:03:54;4.40;78.90
7762;DHT22;3925;48.636;9.516;2022-12-18T13:06:32;4.30;79.70
7762;DHT22;3925;48.636;9.516;2022-12-18T13:09:00;4.20;81.30
7762;DHT22;3925;48.636;9.516;2022-12-18T13:11:35;4.10;81.80
7762;DHT22;3925;48.636;9.516;2022-12-18T13:14:27;4.20;82.60
7762;DHT22;3925;48.636;9.516;2022-12-18T13:17:29;4.10;83.80
7762;DHT22;3925;48.636;9.516;2022-12-18T13:20:06;3.80;84.80
7762;DHT22;3925;48.636;9.516;2022-12-18T13:22:38;3.80;87.10
7762;DHT22;3925;48.636;9.516;2022-12-18T13:25:33;3.70;87.70
7762;DHT22;3925;48.636;9.516;2022-12-18T13:28:09;3.50;89.50
7762;DHT22;3925;48.636;9.516;2022-12-18T13:30:48;3.30;90.70
7762;DHT22;3925;48.636;9.516;2022-12-18T13:33:50;3.50;90.70
7762;DHT22;3925;48.636;9.516;2022-12-18T13:36:28;3.40;90.90
7762;DHT22;3925;48.636;9.516;2022-12-18T13:39:31;3.30;91.90
7762;DHT22;3925;48.636;9.516;2022-12-18T13:42:37;3.10;92.30
7762;DHT22;3925;48.636;9.516;2022-12-18T13:45:42;3.10;93.50
7762;DHT22;3925;48.636;9.516;2022-12-18T13:48:22;3.10;93.60
7762;DHT22;3925;48.636;9.516;2022-12-18T13:51:00;2.80;94.20
7762;DHT22;3925;48.636;9.516;2022-12-18T13:53:31;2.50;94.70
7762;DHT22;3925;48.636;9.516;2022-12-18T13:55:59;2.60;95.10
7762;DHT22;3925;48.636;9.516;2022-12-18T13:58:26;2.60;94.70
7762;DHT22;3925;48.636;9.516;2022-12-18T14:00:53;2.40;95.90
7762;DHT22;3925;48.636;9.516;2022-12-18T14:03:22;2.50;96.40
7762;DHT22;3925;48.636;9.516;2022-12-18T14:06:00;2.70;96.60
7762;DHT22;3925;48.636;9.516;2022-12-18T14:08:35;2.60;96.80
7762;DHT22;3925;48.636;9.516;2022-12-18T14:11:04;2.40;97.50
7762;DHT22;3925;48.636;9.516;2022-12-18T14:13:36;2.50;97.80
7762;DHT22;3925;48.636;9.516;2022-12-18T14:16:06;2.40;98.10
7762;DHT22;3925;48.636;9.516;2022-12-18T14:18:41;2.20;99.10
7762;DHT22;3925;48.636;9.516;2022-12-18T14:21:19;1.90;99.50
7762;DHT22;3925;48.636;9.516;2022-12-18T14:23:47;1.80;99.90
7762;DHT22;3925;48.636;9.516;2022-12-18T14:26:23;1.70;99.90
7762;DHT22;3925;48.636;9.516;2022-12-18T14:28:52;1.70;99.90
7762;DHT22;3925;48.636;9.516;2022-12-18T14:31:22;1.60;99.90
7762;DHT22;3925;48.636;9.516;2022-12-18T14:33:50;1.50;99.90
7762;DHT22;3925;48.636;9.516;2022-12-18T14:36:20;1.50;99.90
7762;DHT22;3925;48.636;9.516;2022-12-18T14:38:49;1.20;99.90
7762;DHT22;3925;48.636;9.516;2022-12-18T14:41:18;1.10;99.90
7762;DHT22;3925;48.636;9.516;2022-12-18T14:43:48;1.10;99.90
7762;DHT22;3925;48.636;9.516;2022-12-18T14:46:33;0.90;99.90
7762;DHT22;3925;48.636;9.516;2022-12-18T14:49:03;0.70;99.90
7762;DHT22;3925;48.636;9.516;2022-12-18T14:51:33;0.60;99.90
7762;DHT22;3925;48.636;9.516;2022-12-18T14:54:02;0.50;99.90
7762;DHT22;3925;48.636;9.516;2022-12-18T14:56:31;0.40;99.90
7762;DHT22;3925;48.636;9.516;2022-12-18T14:59:00;0.40;99.90
7762;DHT22;3925;48.636;9.516;2022-12-18T15:01:29;0.30;99.90
7762;DHT22;3925;48.636;9.516;2022-12-18T15:03:58;0.20;99.90
7762;DHT22;3925;48.636;9.516;2022-12-18T15:06:32;0.10;99.90
7762;DHT22;3925;48.636;9.516;2022-12-18T15:09:00;0.10;99.90
7762;DHT22;3925;48.636;9.516;2022-12-18T15:11:32;-0.20;99.90
7762;DHT22;3925;48.636;9.516;2022-12-18T15:14:03;-0.30;99.90
7762;DHT22;3925;48.636;9.516;2022-12-18T15:16:50;-0.40;99.90
7762;DHT22;3925;48.636;9.516;2022-12-18T15:19:18;-0.50;99.90
7762;DHT22;3925;48.636;9.516;2022-12-18T15:21:47;-0.60;99.90
7762;DHT22;3925;48.636;9.516;2022-12-18T15:24:18;-0.40;99.90
7762;DHT22;3925;48.636;9.516;2022-12-18T15:26:45;-0.50;99.90
7762;DHT22;3925;48.636;9.516;2022-12-18T15:29:18;-0.60;99.90
7762;DHT22;3925;48.636;9.516;2022-12-18T15:31:59;-0.70;99.90
7762;DHT22;3925;48.636;9.516;2022-12-18T15:34:26;-0.70;99.90
7762;DHT22;3925;48.636;9.516;2022-12-18T15:36:55;-0.70;99.90
7762;DHT22;3925;48.636;9.516;2022-12-18T15:39:24;-0.80;99.90
7762;DHT22;3925;48.636;9.516;2022-12-18T15:41:51;-0.90;99.90
7762;DHT22;3925;48.636;9.516;2022-12-18T15:44:36;-1.10;99.90
7762;DHT22;3925;48.636;9.516;2022-12-18T15:47:04;-0.70;99.90
7762;DHT22;3925;48.636;9.516;2022-12-18T15:49:34;-0.70;99.90
7762;DHT22;3925;48.636;9.516;2022-12-18T15:52:03;-0.90;99.90
7762;DHT22;3925;48.636;9.516;2022-12-18T15:54:30;-1.00;99.90
7762;DHT22;3925;48.636;9.516;2022-12-18T15:57:22;-1.00;99.90
7762;DHT22;3925;48.636;9.516;2022-12-18T15:59:49;-1.00;99.90
7762;DHT22;3925;48.636;9.516;2022-12-18T16:02:18;-0.80;99.90
7762;DHT22;3925;48.636;9.516;2022-12-18T16:04:45;-0.90;99.90
7762;DHT22;3925;48.636;9.516;2022-12-18T16:07:13;-0.90;99.90
7762;DHT22;3925;48.636;9.516;2022-12-18T16:09:40;-0.90;99.90
7762;DHT22;3925;48.636;9.516;2022-12-18T16:12:14;-1.10;99.90
7762;DHT22;3925;48.636;9.516;2022-12-18T16:14:41;-1.40;99.90
7762;DHT22;3925;48.636;9.516;2022-12-18T16:17:10;-2.00;99.90
7762;DHT22;3925;48.636;9.516;2022-12-18T16:19:37;-2.10;99.90
7762;DHT22;3925;48.636;9.516;2022-12-18T16:22:05;-1.80;99.90
7762;DHT22;3925;48.636;9.516;2022-12-18T16:24:33;-2.00;99.90
7762;DHT22;3925;48.636;9.516;2022-12-18T16:27:01;-2.60;99.90
7762;DHT22;3925;48.636;9.516;2022-12-18T16:29:29;-2.60;99.90